KMEV/MEV METAR and TAF weather

Enter ICAO airport designator
Station Type Date Time Source
KMEV METAR 2020/08/05 16:15 UTC NOAA

KMEV 051615Z AUTO 23004KT 10SM CLR 21/05 A3005 RMK AO2


Station Type Date Time Source
KMEV Decoded METAR 2020/08/05 16:15 UTC NOAA

Station name not available
Aug 05, 2020 - 12:15 PM EDT / 2020.08.05 1615 UTC
Wind: from the SW (230 degrees) at 5 MPH (4 KT):0
Visibility: 10 mile(s):0
Sky conditions: clear
Temperature: 69 F (21 C)
Dew Point: 41 F (5 C)
Relative Humidity: 35%
Pressure (altimeter): 30.05 in. Hg (1017 hPa)
ob: KMEV 051615Z AUTO 23004KT 10SM CLR 21/05 A3005 RMK AO2
cycle: 16

Station Type Date Time Source
KMEV TAF 2020/08/05 12:21 UTC NOAA

TAF KMEV 051120Z 0512/0612 12006KT P6SM SKC
FM052000 28014G24KT P6SM FEW100
FM060040 28008KT P6SM SKC

Example: see airport list